• Join FlightAware (Why Join?)
  • Login
  • US Flag 
02:42PM EDT


 

Airport Tracker/Info


-or-


 

Live Flight TrackerFlight Track Log ✈ AAL2007 ✈ 10-Jun-2013 ✈ KORD - KAUS

Flight Track Log - Related Links

Times and Time Zones

All times are in EDT time to prevent confusion due to time zone crossing. See the AAL2007 flight status page for this flight to view local times or setup timezone preferences in your user account.

Time Position Orientation Groundspeed Altitude Reporting Facility
EDT Latitude Longitude Course Direction KTS MPH feet Rate Location/Type
06:12PM 41.9333 -87.9000 194° South 186 214 2,200  Level Chicago TRACON
06:13PM 41.8667 -87.9000 180° South 248 285 4,100 2,160 Climbing Chicago TRACON
06:14PM 41.7833 -88.1055 201° Southwest  Level Estimated
06:14PM 41.7878 -87.8886 174° South 257 296 6,500  Level Chicago Center
06:15PM 41.6600 -88.0906 175° South  Level FlightAware Approximate
06:15PM 41.7106 -87.9178 196° South 287 330 9,700  Level Chicago Center
06:16PM 41.5612 -88.1902 197° South  Level Estimated
06:16PM 41.6411 -87.9817 215° Southwest 299 344 12,000  Level Chicago Center
06:17PM 41.4622 -88.2894 194° South  Level Estimated
06:17PM 41.5561 -88.0472 210° Southwest 349 402 13,100  Level Chicago Center
06:18PM 41.3699 -88.3817 194° South  Level Estimated
06:18PM 41.4478 -88.1414 213° Southwest 402 463 16,000  Level Chicago Center
06:19PM 41.3444 -88.2097 206° Southwest 435 501 17,900 1,980 Climbing Chicago Center
06:21PM 41.2289 -88.2597 198° South 442 509 20,100 1,740 Climbing Chicago Center
06:22PM 41.1097 -88.3136 199° South 452 520 21,600 1,560 Climbing Chicago Center
06:23PM 40.9550 -88.3825 199° South 486 559 23,400 1,680 Climbing Chicago Center
06:24PM 40.8433 -88.4797 213° Southwest 489 563 25,100 1,920 Climbing Chicago Center
06:25PM 40.7428 -88.5947 221° Southwest 482 555 27,400 1,860 Climbing Chicago Center
06:26PM 40.6389 -88.7008 218° Southwest 477 549 29,000 1,320 Climbing Chicago Center
06:27PM 40.5353 -88.8064 218° Southwest 474 545 30,200 1,380 Climbing Chicago Center
06:28PM 40.4119 -88.9317 218° Southwest 479 551 31,900 840 Climbing Chicago Center
06:29PM 40.3069 -89.0397 218° Southwest 477 549 32,000  Climbing Chicago Center
06:30PM 40.2014 -89.1461 218° Southwest 479 551 32,000  Level Chicago Center
06:31PM 40.0992 -89.2506 218° Southwest 470 541 32,000  Level Chicago Center
06:32PM 40.0175 -89.3353 218° Southwest 469 540 32,000  Level Kansas City Center
06:33PM 39.9144 -89.4400 218° Southwest 468 539 32,000  Level Kansas City Center
06:34PM 39.8100 -89.5442 217° Southwest 470 541 32,000  Level Kansas City Center
06:35PM 39.6978 -89.6550 217° Southwest 470 541 32,000 60 Level Kansas City Center
06:36PM 39.5933 -89.7614 218° Southwest 475 547 32,200 540 Climbing Kansas City Center
06:37PM 39.4894 -89.8642 217° Southwest 474 545 33,200 840 Climbing Kansas City Center
06:38PM 39.3856 -89.9669 217° Southwest 472 543 34,000 360 Climbing Kansas City Center
06:39PM 39.2831 -90.0681 217° Southwest 467 537 34,000  Level Kansas City Center
06:40PM 39.1808 -90.1692 217° Southwest 465 535 34,000  Level Kansas City Center
06:41PM 39.0564 -90.2922 218° Southwest 470 541 34,000  Level Kansas City Center
06:42PM 38.9536 -90.3931 217° Southwest 470 541 34,000  Level Kansas City Center
06:43PM 38.8456 -90.5019 218° Southwest 464 534 34,000  Level Kansas City Center
06:44PM 38.7453 -90.6108 220° Southwest 469 540 34,000  Level Kansas City Center
06:45PM 38.6631 -90.7108 224° Southwest 467 537 34,000  Level Kansas City Center
06:46PM 38.5492 -90.8417 222° Southwest 463 533 34,000  Level Kansas City Center
06:47PM 38.4556 -90.9489 222° Southwest 458 527 34,000  Level Kansas City Center
06:48PM 38.3600 -91.0572 222° Southwest 459 528 34,000  Level Kansas City Center
06:49PM 38.2628 -91.1683 222° Southwest 468 539 34,000  Level Kansas City Center
06:50PM 38.1500 -91.2944 221° Southwest 462 532 34,000  Level Kansas City Center
06:51PM 38.0531 -91.4042 222° Southwest 462 532 34,000  Level Kansas City Center
06:52PM 37.9569 -91.5122 222° Southwest 462 532 34,000  Level Kansas City Center
06:53PM 37.8611 -91.6214 222° Southwest 459 528 34,000  Level Kansas City Center
06:54PM 37.7628 -91.7311 221° Southwest 462 532 34,000  Level Kansas City Center
06:55PM 37.6639 -91.8414 221° Southwest 466 536 34,000  Level Kansas City Center
06:56PM 37.5622 -91.9542 221° Southwest 475 547 34,000  Level Kansas City Center
06:57PM 37.4639 -92.0656 222° Southwest 473 544 34,000  Level Kansas City Center
06:58PM 37.3650 -92.1744 221° Southwest 470 541 34,000  Level Kansas City Center
06:59PM 37.2481 -92.3025 221° Southwest 465 535 34,000  Level Kansas City Center
07:00PM 37.1522 -92.4072 221° Southwest 458 527 34,000  Level Kansas City Center
07:01PM 37.0564 -92.5114 221° Southwest 456 525 34,000  Level Kansas City Center
07:03PM 36.9586 -92.6169 221° Southwest 458 527 34,000  Level Kansas City Center
07:04PM 36.8617 -92.7236 221° Southwest 460 529 34,000  Level Kansas City Center
07:05PM 36.7633 -92.8283 220° Southwest 462 532 34,000  Level Kansas City Center
07:06PM 36.6658 -92.9333 221° Southwest 462 532 34,000  Level Kansas City Center
07:07PM 36.5667 -93.0369 220° Southwest 464 534 34,000  Level Kansas City Center
07:08PM 36.4531 -93.1572 220° Southwest 462 532 34,000  Level Kansas City Center
07:08PM 36.3714 -93.2436 220° Southwest 467 537 34,000  Level Memphis Center
07:09PM 36.2728 -93.3508 221° Southwest 467 537 34,000  Level Memphis Center
07:10PM 36.1767 -93.4503 220° Southwest 467 537 34,000  Level Memphis Center
07:11PM 36.0661 -93.5383 213° Southwest 467 537 34,000  Level Memphis Center
07:12PM 35.9575 -93.6267 213° Southwest 472 543 34,000  Level Memphis Center
07:13PM 35.8489 -93.7119 212° Southwest 472 543 34,000  Level Memphis Center
07:14PM 35.7400 -93.7994 213° Southwest 472 543 34,000  Level Memphis Center
07:15PM 35.6292 -93.8894 213° Southwest 477 549 34,000  Level Memphis Center
07:16PM 35.5203 -93.9767 213° Southwest 471 542 34,000  Level Memphis Center
07:17PM 35.4133 -94.0611 213° Southwest 471 542 34,000  Level Memphis Center
07:18PM 35.3022 -94.1478 212° Southwest 471 542 34,000  Level Memphis Center
07:19PM 35.1933 -94.2319 212° Southwest 471 542 34,000  Level Memphis Center
07:20PM 35.0864 -94.3183 213° Southwest 471 542 34,000  Level Memphis Center
07:22PM 34.9719 -94.4111 214° Southwest 454 522 34,000  Level Fort Worth Center
07:23PM 34.8858 -94.4772 212° Southwest 459 528 34,000  Level Fort Worth Center
07:24PM 34.7653 -94.5775 214° Southwest 465 535 34,000  Level Fort Worth Center
07:25PM 34.6564 -94.6594 212° Southwest 465 535 34,000  Level Fort Worth Center
07:26PM 34.5478 -94.7436 213° Southwest 475 547 34,000  Level Fort Worth Center
07:27PM 34.4369 -94.8300 213° Southwest 475 547 34,000  Level Fort Worth Center
07:28PM 34.3258 -94.9139 212° Southwest 475 547 34,000  Level Fort Worth Center
07:29PM 34.2169 -94.9975 212° Southwest 475 547 34,000  Level Fort Worth Center
07:30PM 34.1058 -95.0833 213° Southwest 475 547 34,000  Level Fort Worth Center
07:31PM 33.9967 -95.1664 212° Southwest 475 547 34,000  Level Fort Worth Center
07:32PM 33.8836 -95.2517 212° Southwest 475 547 34,000  Level Fort Worth Center
07:33PM 33.7722 -95.3369 212° Southwest 475 547 34,000  Level Fort Worth Center
07:34PM 33.6631 -95.4194 212° Southwest 475 547 34,000  Level Fort Worth Center
07:35PM 33.5536 -95.5017 212° Southwest 475 547 34,000  Level Fort Worth Center
07:36PM 33.4381 -95.5864 211° Southwest 475 547 34,000  Level Fort Worth Center
07:37PM 33.3181 -95.6733 211° Southwest 475 547 34,000  Level Fort Worth Center
07:38PM 33.2108 -95.7572 213° Southwest 475 547 34,000  Level Fort Worth Center
07:39PM 33.0969 -95.8389 211° Southwest 475 547 34,000  Level Fort Worth Center
07:40PM 32.9875 -95.9200 212° Southwest 475 547 34,000  Level Fort Worth Center
07:41PM 32.8775 -95.9986 211° Southwest 475 547 34,000  Level Fort Worth Center
07:42PM 32.7700 -96.0792 212° Southwest 475 547 34,000  Level Fort Worth Center
07:43PM 32.6581 -96.1622 212° Southwest 475 547 34,000  Level Fort Worth Center
07:44PM 32.5483 -96.2428 212° Southwest 475 547 34,000  Level Fort Worth Center
07:45PM 32.4383 -96.3253 212° Southwest 475 547 34,000  Level Fort Worth Center
07:46PM 32.3242 -96.4078 211° Southwest 480 552 34,000  Level Fort Worth Center
07:47PM 32.2119 -96.4878 211° Southwest 480 552 34,000  Level Fort Worth Center
07:48PM 32.1000 -96.5697 212° Southwest 480 552 34,000 -600 Level Fort Worth Center
07:49PM 31.9897 -96.6517 212° Southwest 475 547 32,800 -1,380 Descending Fort Worth Center
07:50PM 31.8900 -96.7233 211° Southwest 475 547 31,300 -1,680 Descending Fort Worth Center
07:50PM 31.7931 -96.7933 212° Southwest 476 548 29,900 -1,920 Descending Houston Center
07:51PM 31.6761 -96.8756 211° Southwest 482 555 27,900 -2,040 Descending Houston Center
07:52PM 31.5578 -96.9606 211° Southwest 490 564 25,800 -1,920 Descending Houston Center
07:53PM 31.4419 -97.0436 211° Southwest 486 559 24,000 -1,620 Descending Houston Center
07:54PM 31.3275 -97.1247 211° Southwest 479 551 22,500 -1,860 Descending Houston Center
07:55PM 31.2131 -97.2047 211° Southwest 477 549 20,200 -2,340 Descending Houston Center
07:56PM 31.0947 -97.2539 200° South 450 518 17,800 -2,400 Descending Houston Center
07:58PM 30.9636 -97.3061 199° South 438 504 15,400 -2,160 Descending Houston Center
07:59PM 30.8539 -97.3467 198° South 423 487 13,400 -1,620 Descending Houston Center
08:00PM 30.7525 -97.3864 199° South 389 448 12,100 -1,140 Descending Houston Center
08:01PM 30.6647 -97.4200 198° South 335 386 11,100 -1,500 Descending Houston Center
08:02PM 30.5869 -97.4497 198° South 298 343 9,000 -1,800 Descending Houston Center
08:03PM 30.5136 -97.4869 204° Southwest 288 331 7,500 -1,740 Descending Houston Center
08:04PM 30.4364 -97.5431 212° Southwest 280 322 5,500 -1,680 Descending Houston Center
08:05PM 30.3800 -97.5853 213° Southwest 239 275 4,100 -1,380 Descending Houston Center